Terminal Aerodrome Forecast
Issued by NWS

Home | Current Version | Previous Version | Text Only | Print | Product List | Glossary On
Versions: 1 2 3 4 5 6 7 8 9 10 11 12 13 14 15 16 17 18 19 20
000
FTAK31 PANC 252331
TAFACD
TAF
PACD 252331Z 2600/2624 VRB03KT P6SM SCT015 BKN025
      TEMPO 2600/2604 SCT025 BKN035
     FM261000 VRB03KT P6SM FEW005 BKN015=

USA.gov is the U.S. government's official web portal to all federal, state and local government web resources and services.